Time;durP1;ratioP1;P1;durP2;ratioP2;P2;SDS_P1;SDS_P2;PMS_P1;PMS_P2;Temp;Humidity;BMP_temperature;BMP_pressure;BME280_temperature;BME280_humidity;BME280_pressure;Samples;Min_cycle;Max_cycle;Signal;HPM_P1;HPM_P2
2022/05/23 00:01:49;;;;;;;;;;;435.80;2355.20;;;;;;5115278;28;19904;-78
2022/05/23 00:04:15;;;;;;;;;;;435.70;2355.20;;;;;;5116432;28;20359;-78
2022/05/23 00:06:40;;;;;;;;;;;435.60;2355.20;;;;;;5115940;28;19907;-78
2022/05/23 00:09:06;;;;;;;;;;;435.60;2355.20;;;;;;5115558;28;19903;-78
2022/05/23 00:11:32;;;;;;;;;;;435.80;2355.20;;;;;;5115168;28;20352;-78
2022/05/23 00:13:58;;;;;;;;;;;435.70;2355.20;;;;;;5114966;28;20410;-80
2022/05/23 00:16:26;;;;;;;;;;;435.90;2355.20;;;;;;5115999;28;19948;-80
2022/05/23 00:18:51;;;;;;;;;;;435.80;2355.20;;;;;;5114582;28;19966;-80
2022/05/23 00:21:18;;;;;;;;;;;436.00;2355.20;;;;;;5116067;28;19911;-80
2022/05/23 00:23:44;;;;;;;;;;;435.50;2355.20;;;;;;5114518;28;19903;-79
2022/05/23 00:26:11;;;;;;;;;;;435.80;2355.20;;;;;;5114437;28;19910;-79
2022/05/23 00:28:39;;;;;;;;;;;435.30;2355.20;;;;;;5114702;28;19972;-77
2022/05/23 00:31:06;;;;;;;;;;;435.40;2355.20;;;;;;5114520;28;19922;-77
2022/05/23 00:36:15;;;;;;;;;;;435.40;2355.20;;;;;;5115859;28;19926;-77
2022/05/23 00:38:41;;;;;;;;;;;435.40;2355.20;;;;;;5114274;28;20365;-77
2022/05/23 00:44:03;;;;;;;;;;;435.40;2355.20;;;;;;5115427;28;19910;-78
2022/05/23 00:46:28;;;;;;;;;;;435.30;2355.20;;;;;;5114402;28;19904;-77
2022/05/23 00:48:57;;;;;;;;;;;435.20;2355.20;;;;;;5113859;28;19941;-77
2022/05/23 00:51:22;;;;;;;;;;;410.50;2355.20;;;;;;5115842;28;19908;-77
2022/05/23 00:53:51;;;;;;;;;;;410.50;2355.20;;;;;;5114060;28;19904;-77
2022/05/23 00:56:19;;;;;;;;;;;410.30;2355.20;;;;;;5115141;28;19915;-77
2022/05/23 00:58:57;;;;;;;;;;;410.30;2355.20;;;;;;5114051;28;19911;-78
2022/05/23 01:01:27;;;;;;;;;;;410.20;2355.20;;;;;;5115183;28;20327;-78
2022/05/23 01:03:53;;;;;;;;;;;410.30;2355.20;;;;;;5113960;28;19964;-78
2022/05/23 01:06:18;;;;;;;;;;;410.50;2355.20;;;;;;5115241;28;20356;-78
2022/05/23 01:08:45;;;;;;;;;;;410.50;2355.20;;;;;;5113736;28;19904;-79
2022/05/23 01:11:11;;;;;;;;;;;410.50;2355.20;;;;;;5114696;28;20356;-78
2022/05/23 01:13:36;;;;;;;;;;;410.40;2355.20;;;;;;5115361;28;19914;-77
2022/05/23 01:16:02;;;;;;;;;;;410.30;2355.20;;;;;;5113522;28;20359;-77
2022/05/23 01:18:28;;;;;;;;;;;410.50;2355.20;;;;;;5113789;28;19903;-78
2022/05/23 01:20:56;;;;;;;;;;;410.20;2355.20;;;;;;5113782;28;19904;-78
2022/05/23 01:23:40;;;;;;;;;;;410.30;2355.20;;;;;;5113474;28;19903;-77
2022/05/23 01:26:05;;;;;;;;;;;410.50;2355.20;;;;;;5113446;28;19903;-77
2022/05/23 01:28:32;;;;;;;;;;;410.50;2355.20;;;;;;5112602;28;19941;-77
2022/05/23 01:30:58;;;;;;;;;;;410.50;2355.20;;;;;;5113681;28;19911;-77
2022/05/23 01:33:24;;;;;;;;;;;410.50;2355.20;;;;;;5116629;28;19914;-77
2022/05/23 01:35:49;;;;;;;;;;;410.50;2355.20;;;;;;5116646;28;20314;-78
2022/05/23 01:38:15;;;;;;;;;;;410.00;2355.20;;;;;;5121268;28;20003;-77
2022/05/23 01:40:40;;;;;;;;;;;410.20;2355.20;;;;;;5124193;28;19904;-77
2022/05/23 01:43:06;;;;;;;;;;;410.30;2355.20;;;;;;5124942;28;19990;-77
2022/05/23 01:45:33;;;;;;;;;;;410.30;2355.20;;;;;;5123064;28;20006;-77
2022/05/23 01:48:00;;;;;;;;;;;410.30;2355.20;;;;;;5121009;28;19911;-77
2022/05/23 01:50:26;;;;;;;;;;;410.20;2355.20;;;;;;5119049;28;19914;-76
2022/05/23 01:52:52;;;;;;;;;;;410.30;2355.20;;;;;;5118271;28;19908;-77
2022/05/23 01:55:18;;;;;;;;;;;410.20;2355.20;;;;;;5124186;28;19915;-76
2022/05/23 01:57:44;;;;;;;;;;;410.20;2355.20;;;;;;5128494;28;19926;-77
2022/05/23 02:02:55;;;;;;;;;;;410.00;2355.20;;;;;;5128650;28;19925;-77
2022/05/23 02:05:20;;;;;;;;;;;410.00;2355.20;;;;;;5126312;28;19931;-78
2022/05/23 02:07:46;;;;;;;;;;;410.10;2355.20;;;;;;5124434;28;19986;-77
2022/05/23 02:10:12;;;;;;;;;;;410.20;2355.20;;;;;;5122758;28;19967;-77
2022/05/23 02:12:38;;;;;;;;;;;410.30;2355.20;;;;;;5126876;28;19911;-78
2022/05/23 02:15:04;;;;;;;;;;;410.40;2355.20;;;;;;5128848;28;19948;-77
2022/05/23 02:17:30;;;;;;;;;;;410.30;2355.20;;;;;;5124943;28;19911;-78
2022/05/23 02:19:56;;;;;;;;;;;410.30;2355.20;;;;;;5122284;28;19904;-77
2022/05/23 02:22:21;;;;;;;;;;;410.00;2355.20;;;;;;5122509;28;19986;-77
2022/05/23 02:24:47;;;;;;;;;;;410.00;2355.20;;;;;;5122923;28;19908;-77
2022/05/23 02:27:12;;;;;;;;;;;410.20;2355.20;;;;;;5113325;28;20417;-78
2022/05/23 02:29:38;;;;;;;;;;;410.20;2355.20;;;;;;5113051;28;20014;-77
2022/05/23 02:32:04;;;;;;;;;;;410.20;2355.20;;;;;;5112889;28;19984;-77
2022/05/23 02:34:30;;;;;;;;;;;435.30;2355.20;;;;;;5113139;28;19903;-77
2022/05/23 02:36:55;;;;;;;;;;;410.20;2355.20;;;;;;5113010;28;19911;-78
2022/05/23 02:39:21;;;;;;;;;;;410.20;2355.20;;;;;;5114081;28;19916;-78
2022/05/23 02:41:47;;;;;;;;;;;410.20;2355.20;;;;;;5117837;28;20002;-78
2022/05/23 02:44:12;;;;;;;;;;;410.20;2355.20;;;;;;5116881;28;19930;-78
2022/05/23 02:46:38;;;;;;;;;;;410.20;2355.20;;;;;;5116527;28;19968;-78
2022/05/23 02:49:05;;;;;;;;;;;410.20;2355.20;;;;;;5116704;28;19910;-77
2022/05/23 02:51:32;;;;;;;;;;;410.30;2355.20;;;;;;5116903;28;20260;-78
2022/05/23 02:53:57;;;;;;;;;;;410.30;2355.20;;;;;;5116596;28;19915;-78
2022/05/23 02:56:23;;;;;;;;;;;410.20;2355.20;;;;;;5116555;28;19903;-78
2022/05/23 02:58:49;;;;;;;;;;;410.20;2355.20;;;;;;5116213;28;19947;-78
2022/05/23 03:01:14;;;;;;;;;;;410.20;2355.20;;;;;;5117065;28;19903;-78
2022/05/23 03:03:40;;;;;;;;;;;409.80;2355.20;;;;;;5116404;28;19954;-78
2022/05/23 03:06:06;;;;;;;;;;;409.90;2355.20;;;;;;5117748;28;20348;-78
2022/05/23 03:08:32;;;;;;;;;;;409.90;2355.20;;;;;;5115716;28;19908;-78
2022/05/23 03:10:59;;;;;;;;;;;409.90;2355.20;;;;;;5117258;28;19911;-78
2022/05/23 03:13:25;;;;;;;;;;;410.00;2355.20;;;;;;5117919;28;19908;-79
2022/05/23 03:15:50;;;;;;;;;;;410.00;2355.20;;;;;;5115953;28;19911;-79
2022/05/23 03:18:16;;;;;;;;;;;410.20;2355.20;;;;;;5117278;28;19904;-78
2022/05/23 03:20:42;;;;;;;;;;;410.10;2355.20;;;;;;5116173;28;20245;-78
2022/05/23 03:28:37;;;;;;;;;;;410.30;2355.20;;;;;;5116682;28;19914;-78
2022/05/23 03:31:04;;;;;;;;;;;410.50;2355.20;;;;;;5117203;28;19908;-78
2022/05/23 03:33:30;;;;;;;;;;;410.40;2355.20;;;;;;5115992;28;20450;-78
2022/05/23 03:35:55;;;;;;;;;;;435.60;2355.20;;;;;;5115563;28;19903;-78
2022/05/23 03:38:22;;;;;;;;;;;410.20;2355.20;;;;;;5115435;28;19916;-78
2022/05/23 03:40:48;;;;;;;;;;;410.10;2355.20;;;;;;5117029;28;19931;-78
2022/05/23 03:43:14;;;;;;;;;;;410.20;2355.20;;;;;;5116894;28;20045;-79
2022/05/23 03:45:40;;;;;;;;;;;410.20;2355.20;;;;;;5115540;28;19951;-78
2022/05/23 03:48:06;;;;;;;;;;;410.10;2355.20;;;;;;5115492;28;19911;-78
2022/05/23 03:50:32;;;;;;;;;;;410.20;2355.20;;;;;;5115679;28;20246;-79
2022/05/23 03:52:59;;;;;;;;;;;410.20;2355.20;;;;;;5115431;28;20298;-79
2022/05/23 03:55:26;;;;;;;;;;;410.20;2355.20;;;;;;5115437;28;20352;-78
2022/05/23 03:57:51;;;;;;;;;;;410.20;2355.20;;;;;;5116375;28;19904;-77
2022/05/23 04:00:18;;;;;;;;;;;410.30;2355.20;;;;;;5115323;28;19957;-78
2022/05/23 04:02:43;;;;;;;;;;;410.30;2355.20;;;;;;5115124;28;19904;-77
2022/05/23 04:05:10;;;;;;;;;;;410.30;2355.20;;;;;;5114936;28;19910;-78
2022/05/23 04:07:38;;;;;;;;;;;410.40;2355.20;;;;;;5115102;28;19903;-78
2022/05/23 04:10:08;;;;;;;;;;;410.50;2355.20;;;;;;5114604;28;19911;-78
2022/05/23 04:12:33;;;;;;;;;;;410.30;2355.20;;;;;;5114813;28;19908;-79
2022/05/23 04:14:59;;;;;;;;;;;410.30;2355.20;;;;;;5115098;28;19904;-79
2022/05/23 04:17:25;;;;;;;;;;;410.30;2355.20;;;;;;5114601;28;19926;-78
2022/05/23 04:19:50;;;;;;;;;;;410.40;2355.20;;;;;;5115047;28;20044;-79
2022/05/23 04:22:16;;;;;;;;;;;410.20;2355.20;;;;;;5115993;28;19904;-78
2022/05/23 04:24:41;;;;;;;;;;;410.20;2355.20;;;;;;5114516;28;19998;-78
2022/05/23 04:27:07;;;;;;;;;;;410.20;2355.20;;;;;;5116136;28;19922;-78
2022/05/23 04:29:33;;;;;;;;;;;410.20;2355.20;;;;;;5114371;28;19908;-78
2022/05/23 04:31:58;;;;;;;;;;;410.20;2355.20;;;;;;5114166;28;19914;-78
2022/05/23 04:37:08;;;;;;;;;;;410.50;2355.20;;;;;;5115954;28;19949;-78
2022/05/23 04:39:34;;;;;;;;;;;410.50;2355.20;;;;;;5113727;28;19915;-78
2022/05/23 04:42:00;;;;;;;;;;;410.50;2355.20;;;;;;5114591;28;19903;-78
2022/05/23 04:44:26;;;;;;;;;;;410.50;2355.20;;;;;;5114446;28;19910;-78
2022/05/23 04:49:44;;;;;;;;;;;410.30;2355.20;;;;;;5115521;28;19914;-79
2022/05/23 04:52:11;;;;;;;;;;;410.50;2355.20;;;;;;5113887;28;19907;-79
2022/05/23 04:54:37;;;;;;;;;;;435.20;2355.20;;;;;;5114329;28;19925;-79
2022/05/23 04:57:03;;;;;;;;;;;435.20;2355.20;;;;;;5114072;28;20304;-78
2022/05/23 04:59:29;;;;;;;;;;;435.30;2355.20;;;;;;5113546;28;19903;-79
2022/05/23 05:01:55;;;;;;;;;;;435.50;2355.20;;;;;;5114112;28;19904;-79
2022/05/23 05:04:20;;;;;;;;;;;435.60;2355.20;;;;;;5114167;28;19911;-79
2022/05/23 05:06:46;;;;;;;;;;;435.60;2355.20;;;;;;5113772;28;19911;-80
2022/05/23 05:09:11;;;;;;;;;;;435.40;2355.20;;;;;;5113918;28;19996;-79
2022/05/23 05:11:38;;;;;;;;;;;435.50;2355.20;;;;;;5114278;28;19918;-79
2022/05/23 05:14:05;;;;;;;;;;;435.80;2355.20;;;;;;5115124;28;20029;-79
2022/05/23 05:16:31;;;;;;;;;;;435.90;2355.20;;;;;;5113806;28;19904;-78
2022/05/23 05:18:57;;;;;;;;;;;435.80;2355.20;;;;;;5113897;28;19910;-79
2022/05/23 05:21:23;;;;;;;;;;;435.80;2355.20;;;;;;5113521;28;20323;-79
2022/05/23 05:23:49;;;;;;;;;;;435.90;2355.20;;;;;;5114198;28;19910;-79
2022/05/23 05:26:14;;;;;;;;;;;435.90;2355.20;;;;;;5114731;28;19986;-79
2022/05/23 05:28:40;;;;;;;;;;;436.10;2355.20;;;;;;5113417;28;19903;-79
2022/05/23 05:31:09;;;;;;;;;;;436.10;2355.20;;;;;;5115172;28;19915;-79
2022/05/23 05:33:38;;;;;;;;;;;436.10;2355.20;;;;;;5114648;28;19995;-79
2022/05/23 05:36:05;;;;;;;;;;;460.80;2380.80;;;;;;5113189;28;19907;-79
2022/05/23 05:38:37;;;;;;;;;;;461.00;2380.80;;;;;;5113211;28;19920;-79
2022/05/23 05:41:07;;;;;;;;;;;461.10;2380.80;;;;;;5113205;28;19904;-79
2022/05/23 05:43:37;;;;;;;;;;;461.20;2380.80;;;;;;5113979;28;19955;-79
2022/05/23 05:46:05;;;;;;;;;;;461.20;2380.80;;;;;;5113504;28;20022;-79
2022/05/23 05:48:34;;;;;;;;;;;461.10;2380.80;;;;;;5113150;28;19903;-79
2022/05/23 05:51:00;;;;;;;;;;;461.20;2380.80;;;;;;5113306;28;19912;-79
2022/05/23 05:53:28;;;;;;;;;;;461.10;2380.80;;;;;;5113407;28;20620;-79
2022/05/23 05:55:54;;;;;;;;;;;461.10;2380.80;;;;;;5114272;28;20002;-78
2022/05/23 05:58:20;;;;;;;;;;;461.10;2380.80;;;;;;5113295;28;19969;-79
2022/05/23 06:00:45;;;;;;;;;;;461.30;2380.80;;;;;;5113243;28;19903;-78
2022/05/23 06:03:11;;;;;;;;;;;461.20;2380.80;;;;;;5112987;28;20276;-78
2022/05/23 06:11:23;;;;;;;;;;;461.40;2380.80;;;;;;5115019;28;19919;-78
2022/05/23 06:13:52;;;;;;;;;;;461.50;2380.80;;;;;;5138166;28;19898;-79
2022/05/23 06:16:19;;;;;;;;;;;461.70;2380.80;;;;;;5141997;28;19908;-79
2022/05/23 06:18:45;;;;;;;;;;;461.70;2380.80;;;;;;5121822;28;19999;-79
2022/05/23 06:21:12;;;;;;;;;;;486.60;2380.80;;;;;;5117921;28;19904;-79
2022/05/23 06:23:42;;;;;;;;;;;486.70;2380.80;;;;;;5117616;28;20340;-80
2022/05/23 06:26:08;;;;;;;;;;;486.80;2380.80;;;;;;5118163;28;19972;-80
2022/05/23 06:28:36;;;;;;;;;;;486.80;2380.80;;;;;;5119199;28;20256;-79
2022/05/23 06:31:02;;;;;;;;;;;486.80;2380.80;;;;;;5118365;28;19981;-80
2022/05/23 06:33:28;;;;;;;;;;;486.80;2380.80;;;;;;5117101;28;19957;-78
2022/05/23 06:35:54;;;;;;;;;;;487.00;2380.80;;;;;;5116671;28;19904;-79
2022/05/23 06:38:20;;;;;;;;;;;487.10;2380.80;;;;;;5116329;28;19916;-79
2022/05/23 06:40:50;;;;;;;;;;;487.10;2380.80;;;;;;5116840;28;19914;-80
2022/05/23 06:43:16;;;;;;;;;;;487.30;2380.80;;;;;;5116763;28;19910;-80
2022/05/23 06:45:42;;;;;;;;;;;512.00;2380.80;;;;;;5116465;28;19903;-80
2022/05/23 06:48:08;;;;;;;;;;;512.20;2380.80;;;;;;5116770;28;20356;-81
2022/05/23 06:50:33;;;;;;;;;;;512.60;2380.80;;;;;;5116615;28;19911;-81
2022/05/23 06:52:59;;;;;;;;;;;512.80;2380.80;;;;;;5116897;28;20267;-81
2022/05/23 06:55:25;;;;;;;;;;;537.70;2406.40;;;;;;5116655;28;19904;-80
2022/05/23 06:57:50;;;;;;;;;;;537.80;2406.40;;;;;;5116345;28;19911;-81
2022/05/23 07:00:17;;;;;;;;;;;538.10;2406.40;;;;;;5116533;28;19927;-80
2022/05/23 07:02:43;;;;;;;;;;;538.50;2406.40;;;;;;5116457;28;19903;-80
2022/05/23 07:13:21;;;;;;;;;;;538.20;2406.40;;;;;;5117552;28;19911;-80
2022/05/23 07:15:47;;;;;;;;;;;538.20;2406.40;;;;;;5116213;28;19904;-80
2022/05/23 07:18:13;;;;;;;;;;;538.20;2406.40;;;;;;5117647;28;20233;-80
2022/05/23 07:20:39;;;;;;;;;;;538.30;2406.40;;;;;;5117153;28;19904;-79
2022/05/23 07:23:05;;;;;;;;;;;563.20;2432.00;;;;;;5116223;28;19904;-80
2022/05/23 07:25:31;;;;;;;;;;;538.40;2380.80;;;;;;5116172;28;19926;-80
2022/05/23 07:27:56;;;;;;;;;;;538.40;2406.40;;;;;;5115647;28;19911;-80
2022/05/23 07:30:22;;;;;;;;;;;538.50;2406.40;;;;;;5116951;28;19919;-79
2022/05/23 07:32:48;;;;;;;;;;;538.50;2406.40;;;;;;5118364;28;19908;-80
2022/05/23 07:35:14;;;;;;;;;;;538.50;2380.80;;;;;;5119282;28;19910;-81
2022/05/23 07:37:39;;;;;;;;;;;538.50;2355.20;;;;;;5118876;28;19915;-80
2022/05/23 07:40:05;;;;;;;;;;;538.50;2355.20;;;;;;5121015;28;19915;-80
2022/05/23 07:42:31;;;;;;;;;;;538.50;2355.20;;;;;;5116889;28;19972;-81
2022/05/23 07:44:56;;;;;;;;;;;538.40;2406.40;;;;;;5116014;28;19946;-81
2022/05/23 07:47:22;;;;;;;;;;;538.20;2406.40;;;;;;5115928;28;20264;-81
2022/05/23 07:49:50;;;;;;;;;;;538.40;2406.40;;;;;;5117460;28;19916;-80
2022/05/23 07:52:16;;;;;;;;;;;538.40;2406.40;;;;;;5115853;28;19904;-80
2022/05/23 08:02:54;;;;;;;;;;;538.50;2406.40;;;;;;5116955;28;20362;-81
2022/05/23 08:05:19;;;;;;;;;;;538.40;2406.40;;;;;;5115506;28;19904;-80
2022/05/23 08:07:45;;;;;;;;;;;538.40;2406.40;;;;;;5114967;28;20402;-77
2022/05/23 08:10:11;;;;;;;;;;;538.50;2406.40;;;;;;5115099;28;19916;-76
2022/05/23 08:12:37;;;;;;;;;;;538.50;2406.40;;;;;;5115262;28;20367;-78
2022/05/23 08:15:03;;;;;;;;;;;538.50;2406.40;;;;;;5114902;28;20249;-76
2022/05/23 08:17:28;;;;;;;;;;;538.50;2406.40;;;;;;5115035;28;20349;-77
2022/05/23 08:19:54;;;;;;;;;;;538.50;2406.40;;;;;;5116568;28;19958;-77
2022/05/23 08:22:20;;;;;;;;;;;538.50;2406.40;;;;;;5114863;28;19903;-77
2022/05/23 08:24:46;;;;;;;;;;;563.20;2432.00;;;;;;5114806;28;19903;-78
2022/05/23 08:27:12;;;;;;;;;;;563.60;2432.00;;;;;;5114475;28;19903;-78
2022/05/23 08:29:37;;;;;;;;;;;563.60;2355.20;;;;;;5115996;28;19915;-77
2022/05/23 08:32:04;;;;;;;;;;;563.70;2355.20;;;;;;5114644;28;19907;-77
2022/05/23 08:34:31;;;;;;;;;;;564.10;2304.00;;;;;;5114493;28;19911;-78
2022/05/23 08:36:58;;;;;;;;;;;588.90;2201.60;;;;;;5115573;28;19903;-81
2022/05/23 08:39:25;;;;;;;;;;;589.10;2124.80;;;;;;5113876;28;19923;-77
2022/05/23 08:41:51;;;;;;;;;;;589.20;2150.40;;;;;;5114446;28;19904;-78
2022/05/23 08:44:17;;;;;;;;;;;589.20;2073.60;;;;;;5114373;28;19904;-78
2022/05/23 08:47:01;;;;;;;;;;;589.40;2048.00;;;;;;5115739;28;19912;-78
2022/05/23 08:49:30;;;;;;;;;;;589.70;1971.20;;;;;;5114326;28;20332;-79
2022/05/23 08:52:04;;;;;;;;;;;589.70;1996.80;;;;;;5115684;28;20564;-79
2022/05/23 08:54:53;;;;;;;;;;;614.40;1894.40;;;;;;5113826;28;19904;-79
2022/05/23 08:57:23;;;;;;;;;;;614.50;1868.80;;;;;;5085787;28;19903;-80
2022/05/23 08:59:52;;;;;;;;;;;614.70;1843.20;;;;;;5114318;28;19904;-79
2022/05/23 09:02:30;;;;;;;;;;;614.90;1792.00;;;;;;5113777;28;19904;-79
2022/05/23 09:05:03;;;;;;;;;;;614.80;1817.60;;;;;;5114288;28;20241;-79
2022/05/23 09:07:40;;;;;;;;;;;614.70;1843.20;;;;;;5113913;28;19903;-79
2022/05/23 09:10:12;;;;;;;;;;;614.80;1843.20;;;;;;5115046;28;19912;-80
2022/05/23 09:12:38;;;;;;;;;;;614.80;1817.60;;;;;;5114287;28;19908;-84
2022/05/23 09:15:03;;;;;;;;;;;614.80;1817.60;;;;;;5114289;28;19903;-83
2022/05/23 09:17:32;;;;;;;;;;;614.60;1817.60;;;;;;5114297;28;19911;-84
2022/05/23 09:20:09;;;;;;;;;;;615.30;1817.60;;;;;;5114511;28;19908;-82
2022/05/23 09:22:43;;;;;;;;;;;640.30;1766.40;;;;;;5113620;28;19903;-80
2022/05/23 09:25:11;;;;;;;;;;;640.50;1740.80;;;;;;5114345;28;19903;-83
2022/05/23 09:27:39;;;;;;;;;;;640.80;1740.80;;;;;;5114367;28;19903;-83
2022/05/23 09:30:08;;;;;;;;;;;640.70;1638.40;;;;;;5114231;28;19912;-83
2022/05/23 09:32:49;;;;;;;;;;;640.80;1689.60;;;;;;5114525;28;19947;-88
2022/05/23 09:35:19;;;;;;;;;;;640.90;1689.60;;;;;;5114715;28;19908;-85
2022/05/23 09:37:47;;;;;;;;;;;640.80;1715.20;;;;;;5114356;28;19916;-85
2022/05/23 09:40:32;;;;;;;;;;;665.60;1792.00;;;;;;5114880;28;19929;-86
2022/05/23 09:49:00;;;;;;;;;;;665.90;1766.40;;;;;;5114232;28;19999;-78
2022/05/23 09:51:25;;;;;;;;;;;666.20;1740.80;;;;;;5114623;28;19911;-80
2022/05/23 09:53:52;;;;;;;;;;;666.50;1740.80;;;;;;5113892;28;19910;-82
2022/05/23 09:56:30;;;;;;;;;;;666.40;1740.80;;;;;;5113547;28;19908;-81
2022/05/23 09:58:57;;;;;;;;;;;666.40;1740.80;;;;;;5113727;28;20310;-83
2022/05/23 10:01:26;;;;;;;;;;;666.30;1766.40;;;;;;5115281;28;19904;-84
2022/05/23 10:03:52;;;;;;;;;;;666.30;1792.00;;;;;;5114154;28;19908;-83
2022/05/23 10:06:18;;;;;;;;;;;666.50;1792.00;;;;;;5114448;28;19914;-80
2022/05/23 10:08:45;;;;;;;;;;;666.50;1766.40;;;;;;5113880;28;20361;-83
2022/05/23 10:11:25;;;;;;;;;;;666.50;1766.40;;;;;;5113535;28;19919;-82
2022/05/23 10:13:54;;;;;;;;;;;691.30;1766.40;;;;;;5113740;28;19911;-83
2022/05/23 10:16:27;;;;;;;;;;;691.30;1792.00;;;;;;5115370;28;19947;-81
2022/05/23 10:19:00;;;;;;;;;;;691.40;1766.40;;;;;;5114089;28;19910;-85
2022/05/23 10:21:26;;;;;;;;;;;691.40;1740.80;;;;;;5115995;28;19951;-83
2022/05/23 10:23:59;;;;;;;;;;;691.40;1740.80;;;;;;5113716;28;19911;-83
2022/05/23 10:26:27;;;;;;;;;;;666.50;1740.80;;;;;;5115459;28;19988;-86
2022/05/23 10:29:04;;;;;;;;;;;666.50;1740.80;;;;;;5113776;28;20341;-82
2022/05/23 10:31:34;;;;;;;;;;;691.30;1740.80;;;;;;5114503;28;19912;-83
2022/05/23 10:34:20;;;;;;;;;;;691.60;1740.80;;;;;;5113616;28;19910;-83
2022/05/23 10:36:46;;;;;;;;;;;691.60;1715.20;;;;;;5112826;28;20392;-84
2022/05/23 10:42:12;;;;;;;;;;;692.10;1664.00;;;;;;5115326;28;19911;-82
2022/05/23 10:44:40;;;;;;;;;;;692.10;1664.00;;;;;;5113395;28;19908;-82
2022/05/23 10:47:24;;;;;;;;;;;692.10;1664.00;;;;;;5113048;28;19910;-82
2022/05/23 10:50:04;;;;;;;;;;;692.10;1612.80;;;;;;5113289;28;19907;-84
2022/05/23 10:52:37;;;;;;;;;;;692.10;1612.80;;;;;;5113514;28;20275;-83
2022/05/23 10:55:17;;;;;;;;;;;717.00;1612.80;;;;;;5113216;28;19911;-81
2022/05/23 10:57:59;;;;;;;;;;;717.10;1587.20;;;;;;5114233;28;19910;-82
2022/05/23 11:00:29;;;;;;;;;;;717.00;1587.20;;;;;;5114825;28;19956;-84
2022/05/23 11:03:01;;;;;;;;;;;717.20;1561.60;;;;;;5117243;28;19904;-84
2022/05/23 11:05:32;;;;;;;;;;;717.40;1587.20;;;;;;5116651;28;19904;-82
2022/05/23 11:08:16;;;;;;;;;;;717.30;1561.60;;;;;;5116711;28;19908;-82
2022/05/23 11:10:42;;;;;;;;;;;717.60;1536.00;;;;;;5116639;28;20357;-81
2022/05/23 11:13:18;;;;;;;;;;;717.70;1536.00;;;;;;5116743;28;19912;-84
2022/05/23 11:16:01;;;;;;;;;;;742.40;1561.60;;;;;;5120191;28;19904;-83
2022/05/23 11:18:39;;;;;;;;;;;742.40;1561.60;;;;;;5117125;28;19907;-81
2022/05/23 11:21:07;;;;;;;;;;;742.60;1561.60;;;;;;5116085;28;19971;-82
2022/05/23 11:23:36;;;;;;;;;;;742.90;1561.60;;;;;;5116565;28;19910;-82
2022/05/23 11:26:02;;;;;;;;;;;742.60;1561.60;;;;;;5116363;28;19904;-84
2022/05/23 11:34:17;;;;;;;;;;;742.80;1587.20;;;;;;5117636;28;20328;-82
2022/05/23 11:39:45;;;;;;;;;;;742.70;1587.20;;;;;;5117572;28;20419;-83
2022/05/23 11:42:15;;;;;;;;;;;742.40;1612.80;;;;;;5117521;28;19907;-82
2022/05/23 11:44:44;;;;;;;;;;;742.90;1587.20;;;;;;5115942;28;19925;-81
2022/05/23 11:47:16;;;;;;;;;;;743.00;1587.20;;;;;;5116404;28;19903;-83
2022/05/23 11:49:43;;;;;;;;;;;742.90;1587.20;;;;;;5115745;28;20363;-82
2022/05/23 11:52:17;;;;;;;;;;;742.80;1612.80;;;;;;5115833;28;19918;-81
2022/05/23 11:54:43;;;;;;;;;;;768.00;1587.20;;;;;;5115552;28;19904;-83
2022/05/23 11:57:12;;;;;;;;;;;768.00;1587.20;;;;;;5115357;28;19910;-82
2022/05/23 11:59:38;;;;;;;;;;;768.30;1587.20;;;;;;5115604;28;19911;-82
2022/05/23 12:02:06;;;;;;;;;;;768.40;1561.60;;;;;;5115271;28;19911;-82
2022/05/23 12:04:32;;;;;;;;;;;768.40;1561.60;;;;;;5115374;28;19911;-84
2022/05/23 12:06:58;;;;;;;;;;;768.70;1587.20;;;;;;5115727;28;19915;-82
2022/05/23 12:09:29;;;;;;;;;;;793.80;1561.60;;;;;;5115360;28;19907;-84
2022/05/23 12:12:13;;;;;;;;;;;768.60;1561.60;;;;;;5115659;28;19970;-85
2022/05/23 12:14:39;;;;;;;;;;;768.50;1561.60;;;;;;5116363;28;19926;-84
2022/05/23 12:17:20;;;;;;;;;;;768.70;1561.60;;;;;;5116006;28;20353;-84
2022/05/23 12:20:07;;;;;;;;;;;793.60;1561.60;;;;;;5116892;28;19904;-84
2022/05/23 12:22:52;;;;;;;;;;;793.60;1561.60;;;;;;5117659;28;19926;-85
2022/05/23 12:25:21;;;;;;;;;;;793.70;1587.20;;;;;;5120468;28;19911;-85
2022/05/23 12:27:50;;;;;;;;;;;768.60;1536.00;;;;;;5117094;28;19953;-83
2022/05/23 12:30:22;;;;;;;;;;;768.70;1536.00;;;;;;5116020;28;19907;-83
2022/05/23 12:32:50;;;;;;;;;;;768.90;1536.00;;;;;;5115578;28;19951;-80
2022/05/23 12:35:17;;;;;;;;;;;768.80;1536.00;;;;;;5116335;28;19904;-83
2022/05/23 12:38:01;;;;;;;;;;;793.80;1561.60;;;;;;5116974;28;20340;-85
2022/05/23 12:40:30;;;;;;;;;;;793.70;1561.60;;;;;;5116521;28;20341;-84
2022/05/23 12:43:14;;;;;;;;;;;793.80;1536.00;;;;;;5116398;28;19943;-84
2022/05/23 12:45:54;;;;;;;;;;;793.60;1561.60;;;;;;5114752;28;19904;-83
2022/05/23 12:48:38;;;;;;;;;;;793.70;1561.60;;;;;;5115161;28;19949;-83
2022/05/23 12:51:04;;;;;;;;;;;768.60;1536.00;;;;;;5114884;28;19960;-83
2022/05/23 12:53:48;;;;;;;;;;;768.70;1561.60;;;;;;5114503;28;19903;-84
2022/05/23 12:56:25;;;;;;;;;;;768.50;1561.60;;;;;;5115140;28;19904;-84
2022/05/23 12:59:09;;;;;;;;;;;768.40;1561.60;;;;;;5114249;28;19903;-84
2022/05/23 13:01:37;;;;;;;;;;;768.60;1561.60;;;;;;5113536;28;19911;-84
2022/05/23 13:04:05;;;;;;;;;;;768.00;1561.60;;;;;;5114083;28;19988;-83
2022/05/23 13:06:34;;;;;;;;;;;743.10;1587.20;;;;;;5114346;28;20224;-84
2022/05/23 13:08:59;;;;;;;;;;;742.90;1612.80;;;;;;5114546;28;19907;-82
2022/05/23 13:11:29;;;;;;;;;;;742.60;1638.40;;;;;;5114730;28;19918;-84
2022/05/23 13:13:58;;;;;;;;;;;742.60;1638.40;;;;;;5123108;28;20081;-81
2022/05/23 13:16:24;;;;;;;;;;;742.60;1638.40;;;;;;5134638;28;19904;-80
2022/05/23 13:27:05;;;;;;;;;;;742.40;1664.00;;;;;;5115660;28;19910;-84
2022/05/23 13:29:32;;;;;;;;;;;717.40;1638.40;;;;;;5114142;28;19904;-84
2022/05/23 13:31:59;;;;;;;;;;;717.20;1638.40;;;;;;5114186;28;19910;-83
2022/05/23 13:34:30;;;;;;;;;;;717.20;1664.00;;;;;;5114296;28;19904;-83
2022/05/23 13:36:56;;;;;;;;;;;717.20;1638.40;;;;;;5114288;28;19904;-83
2022/05/23 13:39:22;;;;;;;;;;;717.10;1664.00;;;;;;5113894;28;19919;-81
2022/05/23 13:41:48;;;;;;;;;;;717.20;1664.00;;;;;;5115338;28;20333;-81
2022/05/23 13:44:27;;;;;;;;;;;716.90;1689.60;;;;;;5114026;28;19904;-82
2022/05/23 13:46:56;;;;;;;;;;;716.80;1689.60;;;;;;5113985;28;19929;-82
2022/05/23 13:49:23;;;;;;;;;;;692.10;1664.00;;;;;;5113899;28;20455;-84
2022/05/23 13:51:57;;;;;;;;;;;691.90;1689.60;;;;;;5113938;28;19946;-83
2022/05/23 13:54:36;;;;;;;;;;;691.80;1689.60;;;;;;5113922;28;19910;-83
2022/05/23 13:57:06;;;;;;;;;;;691.60;1715.20;;;;;;5113810;28;20027;-82
2022/05/23 13:59:36;;;;;;;;;;;691.70;1715.20;;;;;;5113991;28;19904;-82
2022/05/23 14:02:05;;;;;;;;;;;691.80;1715.20;;;;;;5113939;28;19904;-81
2022/05/23 14:04:36;;;;;;;;;;;691.80;1715.20;;;;;;5113826;28;20264;-81
2022/05/23 14:07:12;;;;;;;;;;;691.70;1715.20;;;;;;5113910;28;20337;-83
2022/05/23 14:09:45;;;;;;;;;;;691.60;1715.20;;;;;;5114471;28;19984;-83
2022/05/23 14:12:13;;;;;;;;;;;691.50;1740.80;;;;;;5113811;28;19952;-82
2022/05/23 14:14:43;;;;;;;;;;;691.40;1740.80;;;;;;5113494;28;19915;-84
2022/05/23 14:17:17;;;;;;;;;;;691.40;1740.80;;;;;;5113257;28;19910;-83
2022/05/23 14:19:47;;;;;;;;;;;691.40;1766.40;;;;;;5113791;28;20311;-85
2022/05/23 14:22:28;;;;;;;;;;;691.60;1766.40;;;;;;5114132;28;19911;-83
2022/05/23 14:24:56;;;;;;;;;;;691.40;1766.40;;;;;;5113999;28;19911;-83
2022/05/23 14:27:26;;;;;;;;;;;691.30;1766.40;;;;;;5113506;28;19904;-84
2022/05/23 14:30:10;;;;;;;;;;;691.30;1766.40;;;;;;5114261;28;19912;-82
2022/05/23 14:32:36;;;;;;;;;;;691.30;1766.40;;;;;;5113396;28;19908;-83
2022/05/23 14:35:18;;;;;;;;;;;691.40;1766.40;;;;;;5115597;28;19960;-83
2022/05/23 14:37:47;;;;;;;;;;;691.20;1792.00;;;;;;5117298;28;19951;-81
2022/05/23 14:40:13;;;;;;;;;;;666.50;1792.00;;;;;;5117444;28;19903;-82
2022/05/23 14:42:43;;;;;;;;;;;666.40;1817.60;;;;;;5117261;28;19910;-83
2022/05/23 14:45:12;;;;;;;;;;;666.50;1817.60;;;;;;5117198;28;19925;-82
2022/05/23 14:47:38;;;;;;;;;;;666.50;1817.60;;;;;;5118885;28;19915;-81
2022/05/23 14:50:06;;;;;;;;;;;666.40;1792.00;;;;;;5117091;28;19911;-83
2022/05/23 14:52:36;;;;;;;;;;;666.30;1792.00;;;;;;5117131;28;20226;-81
2022/05/23 14:55:18;;;;;;;;;;;666.20;1792.00;;;;;;5116939;28;19904;-83
2022/05/23 15:00:44;;;;;;;;;;;666.30;1792.00;;;;;;5118617;28;19953;-82